createdAt,value
2022-12-24T08:31:12.326Z,52.20
2022-12-24T08:31:43.167Z,54.30
2022-12-24T08:32:13.961Z,52.60
2022-12-24T08:32:44.712Z,55.90
2022-12-24T08:33:15.482Z,65.20
2022-12-24T08:33:46.246Z,63.30
2022-12-24T08:34:17.001Z,63.50
2022-12-24T08:34:47.770Z,75.40
2022-12-24T08:35:18.522Z,72.90
2022-12-24T08:35:49.268Z,66.20
2022-12-24T08:36:20.026Z,58.90
2022-12-24T08:36:50.778Z,58.40
2022-12-24T08:37:21.512Z,57.60
2022-12-24T08:37:52.263Z,54.60
2022-12-24T08:38:23.003Z,58.70
2022-12-24T08:38:53.742Z,63.30
2022-12-24T08:39:24.571Z,62.60
2022-12-24T08:39:55.311Z,53.60
2022-12-24T08:40:26.061Z,55.70
2022-12-24T08:40:56.832Z,48.20
2022-12-24T08:41:27.576Z,63.40
2022-12-24T08:41:58.462Z,56.90
2022-12-24T08:42:29.442Z,61.90
2022-12-24T08:43:00.229Z,56.70
2022-12-24T08:43:31.341Z,45.70
2022-12-24T08:44:02.248Z,50.60
2022-12-24T08:44:33.106Z,55.70
2022-12-24T08:45:03.887Z,48.70
2022-12-24T08:45:39.976Z,52.40
2022-12-24T08:46:07.277Z,54.70
2022-12-24T08:46:38.113Z,55.40
2022-12-24T08:47:08.883Z,52.70
2022-12-24T08:47:39.645Z,49.80
2022-12-24T08:48:10.462Z,56.90
2022-12-24T08:48:41.253Z,51.90
2022-12-24T08:49:12.015Z,59.00
2022-12-24T08:49:42.788Z,52.30
2022-12-24T08:50:13.552Z,46.80
2022-12-24T08:50:44.323Z,56.00
2022-12-24T08:51:15.081Z,50.40
2022-12-24T08:51:45.834Z,53.10
2022-12-24T08:52:16.595Z,56.00
2022-12-24T08:52:47.365Z,44.00
2022-12-24T08:53:18.125Z,53.20
2022-12-24T08:53:48.873Z,60.80
2022-12-24T08:54:19.625Z,56.60
2022-12-24T08:54:50.375Z,50.80
2022-12-24T08:55:21.133Z,51.10
2022-12-24T08:55:55.970Z,50.40
2022-12-24T08:56:24.107Z,51.70
2022-12-24T08:56:54.875Z,49.30
2022-12-24T08:57:25.627Z,56.40
2022-12-24T08:57:56.383Z,49.80
2022-12-24T08:58:27.137Z,44.30
2022-12-24T08:58:57.886Z,52.80
2022-12-24T08:59:28.656Z,50.80
2022-12-24T08:59:59.434Z,38.50
2022-12-24T09:00:30.184Z,46.00
2022-12-24T09:01:01.019Z,43.90
2022-12-24T09:01:31.972Z,38.10
2022-12-24T09:02:03.005Z,40.00
2022-12-24T09:02:34.127Z,40.70
2022-12-24T09:03:05.034Z,42.50
2022-12-24T09:03:35.854Z,48.20
2022-12-24T09:04:06.617Z,47.30
2022-12-24T09:04:37.386Z,42.60
2022-12-24T09:05:08.147Z,43.20
2022-12-24T09:05:38.895Z,45.90
2022-12-24T09:06:09.674Z,33.50
2022-12-24T09:06:40.441Z,46.70
2022-12-24T09:07:11.227Z,49.50
2022-12-24T09:07:41.976Z,44.30
2022-12-24T09:08:12.729Z,42.60
2022-12-24T09:08:43.513Z,43.30
2022-12-24T09:09:14.267Z,39.00
2022-12-24T09:09:45.048Z,38.40
2022-12-24T09:10:15.806Z,42.20
2022-12-24T09:10:46.598Z,40.60
2022-12-24T09:11:17.347Z,35.30
2022-12-24T09:11:48.109Z,43.20
2022-12-24T09:12:18.868Z,39.00
2022-12-24T09:12:49.729Z,39.70
2022-12-24T09:13:20.478Z,35.10
2022-12-24T09:13:51.226Z,45.10
2022-12-24T09:14:22.006Z,40.40
2022-12-24T09:14:52.967Z,37.20
2022-12-24T09:15:25.012Z,39.80
2022-12-24T09:15:55.815Z,40.40
2022-12-24T09:16:26.605Z,41.30
2022-12-24T09:16:57.448Z,42.20
2022-12-24T09:17:28.248Z,46.80
2022-12-24T09:17:59.025Z,35.80
2022-12-24T09:18:29.776Z,43.40
2022-12-24T09:19:00.541Z,39.80
2022-12-24T09:19:31.311Z,38.50
2022-12-24T09:20:03.018Z,36.00
2022-12-24T09:20:33.789Z,38.40
2022-12-24T09:21:04.543Z,35.40
2022-12-24T09:21:35.291Z,40.50
2022-12-24T09:22:06.039Z,42.20
2022-12-24T09:22:36.880Z,31.40
2022-12-24T09:23:07.630Z,39.20
2022-12-24T09:23:38.397Z,46.60
2022-12-24T09:24:09.173Z,38.40
2022-12-24T09:24:39.956Z,42.30
2022-12-24T09:25:10.754Z,37.90
2022-12-24T09:25:41.508Z,34.00
2022-12-24T09:26:12.271Z,39.40
2022-12-24T09:26:43.033Z,38.50
2022-12-24T09:27:13.785Z,34.00
2022-12-24T09:27:44.555Z,32.70
2022-12-24T09:28:15.313Z,37.50
2022-12-24T09:28:46.080Z,36.70
2022-12-24T09:29:16.829Z,39.30
2022-12-24T09:29:47.590Z,31.90
2022-12-24T09:30:18.340Z,38.00
2022-12-24T09:30:52.023Z,51.70
2022-12-24T09:31:19.789Z,35.10
2022-12-24T09:31:50.632Z,42.80
2022-12-24T09:32:21.409Z,36.70
2022-12-24T09:32:52.174Z,42.30
2022-12-24T09:33:22.928Z,42.10
2022-12-24T09:34:00.609Z,43.00
2022-12-24T09:34:30.414Z,42.60
2022-12-24T09:34:58.270Z,40.20
2022-12-24T09:35:29.022Z,41.50
2022-12-24T09:35:59.770Z,32.60
2022-12-24T09:36:30.532Z,36.50
2022-12-24T09:37:01.288Z,36.80
2022-12-24T09:37:32.044Z,33.00
2022-12-24T09:38:02.934Z,33.80
2022-12-24T09:38:33.840Z,40.20
2022-12-24T09:39:04.592Z,42.50
2022-12-24T09:39:35.380Z,32.70
2022-12-24T09:40:06.152Z,37.80
2022-12-24T09:40:36.912Z,32.20
2022-12-24T09:41:09.092Z,29.70
2022-12-24T09:41:39.882Z,35.90
2022-12-24T09:42:10.631Z,38.10
2022-12-24T09:42:41.387Z,30.80
2022-12-24T09:43:12.148Z,29.60
2022-12-24T09:43:42.901Z,36.80
2022-12-24T09:44:13.675Z,36.70
2022-12-24T09:44:44.464Z,35.00
2022-12-24T09:45:15.241Z,31.10
2022-12-24T09:45:46.022Z,32.40
2022-12-24T09:46:16.885Z,35.70
2022-12-24T09:46:47.655Z,37.40
2022-12-24T09:47:18.413Z,44.10
2022-12-24T09:47:49.162Z,43.50
2022-12-24T09:48:19.935Z,44.90
2022-12-24T09:48:50.695Z,43.00
2022-12-24T09:49:21.454Z,34.00
2022-12-24T09:49:52.223Z,35.20
2022-12-24T09:50:22.972Z,34.90
2022-12-24T09:50:53.721Z,31.70
2022-12-24T09:51:24.462Z,34.60
2022-12-24T09:51:55.221Z,28.50
2022-12-24T09:52:25.975Z,30.30
2022-12-24T09:52:56.742Z,29.60
2022-12-24T09:53:27.495Z,29.50
2022-12-24T09:53:58.253Z,29.90
2022-12-24T09:54:29.003Z,30.60
2022-12-24T09:54:59.773Z,30.10
2022-12-24T09:55:30.522Z,34.10
2022-12-24T09:56:01.280Z,34.90
2022-12-24T09:56:32.035Z,37.00
2022-12-24T09:57:02.800Z,32.80
2022-12-24T09:57:33.566Z,24.70
2022-12-24T09:58:04.321Z,35.20
2022-12-24T09:58:35.073Z,33.70
2022-12-24T09:59:05.824Z,29.70
2022-12-24T09:59:36.581Z,36.00
2022-12-24T10:00:07.353Z,27.70
2022-12-24T10:00:38.095Z,30.80
2022-12-24T10:01:08.930Z,30.80
2022-12-24T10:01:39.870Z,30.30
2022-12-24T10:02:10.742Z,25.60
2022-12-24T10:02:41.604Z,32.90
2022-12-24T10:03:12.606Z,28.80
2022-12-24T10:03:43.405Z,35.60
2022-12-24T10:04:14.204Z,31.70
2022-12-24T10:04:44.954Z,27.40
2022-12-24T10:05:15.715Z,29.60
2022-12-24T10:05:46.464Z,29.70
2022-12-24T10:06:17.243Z,25.90
2022-12-24T10:06:47.984Z,26.00
2022-12-24T10:07:18.754Z,32.20
2022-12-24T10:07:49.505Z,27.40
2022-12-24T10:08:20.254Z,26.40
2022-12-24T10:08:51.001Z,30.40
2022-12-24T10:09:21.743Z,28.00
2022-12-24T10:09:52.497Z,28.50
2022-12-24T10:10:23.270Z,28.00
2022-12-24T10:10:54.019Z,29.70
2022-12-24T10:11:24.777Z,28.50
2022-12-24T10:11:55.545Z,31.70
2022-12-24T10:12:26.294Z,28.50
2022-12-24T10:12:57.057Z,39.80
2022-12-24T10:13:27.802Z,29.80
2022-12-24T10:13:58.555Z,32.20
2022-12-24T10:14:29.306Z,24.50
2022-12-24T10:15:00.063Z,27.60
2022-12-24T10:15:30.834Z,24.40
2022-12-24T10:16:01.611Z,23.70
2022-12-24T10:16:32.395Z,26.00
2022-12-24T10:17:03.207Z,27.10
2022-12-24T10:17:33.966Z,32.70
2022-12-24T10:18:04.717Z,33.80
2022-12-24T10:18:35.476Z,26.20
2022-12-24T10:19:06.237Z,22.60
2022-12-24T10:19:36.999Z,23.20
2022-12-24T10:20:07.737Z,28.20
2022-12-24T10:20:38.516Z,26.70
2022-12-24T10:21:09.272Z,23.40
2022-12-24T10:21:40.077Z,26.90
2022-12-24T10:22:10.834Z,27.20
2022-12-24T10:22:41.587Z,29.50
2022-12-24T10:23:12.328Z,31.90
2022-12-24T10:23:43.102Z,28.90
2022-12-24T10:24:13.864Z,22.00
2022-12-24T10:24:50.029Z,23.50
2022-12-24T10:25:17.209Z,30.50
2022-12-24T10:25:47.971Z,34.90
2022-12-24T10:26:18.737Z,24.70
2022-12-24T10:26:49.498Z,25.30
2022-12-24T10:27:20.248Z,26.20
2022-12-24T10:27:50.989Z,32.20
2022-12-24T10:28:21.747Z,26.40
2022-12-24T10:28:52.505Z,19.90
2022-12-24T10:29:23.247Z,23.40
2022-12-24T10:29:53.990Z,26.90
2022-12-24T10:30:24.749Z,20.10
2022-12-24T10:30:55.561Z,25.30
2022-12-24T10:31:26.407Z,25.30
2022-12-24T10:31:57.224Z,24.20
2022-12-24T10:32:27.979Z,19.30
2022-12-24T10:32:58.722Z,21.70
2022-12-24T10:33:29.477Z,20.00
2022-12-24T10:34:00.220Z,21.10
2022-12-24T10:34:30.981Z,21.60
2022-12-24T10:35:01.749Z,19.90
2022-12-24T10:35:32.522Z,22.10
2022-12-24T10:36:09.883Z,22.70
2022-12-24T10:36:35.881Z,22.40
2022-12-24T10:37:06.641Z,18.90
2022-12-24T10:37:37.388Z,18.40
2022-12-24T10:38:10.092Z,20.40
2022-12-24T10:38:40.852Z,15.40
2022-12-24T10:39:11.597Z,17.40
2022-12-24T10:39:42.346Z,20.00
2022-12-24T10:40:13.094Z,19.60
2022-12-24T10:40:43.893Z,27.50
2022-12-24T10:41:14.619Z,19.30
2022-12-24T10:41:45.370Z,18.90
2022-12-24T10:42:16.109Z,20.30
2022-12-24T10:42:51.405Z,18.40
2022-12-24T10:43:19.463Z,14.40
2022-12-24T10:43:50.221Z,18.40
2022-12-24T10:44:20.961Z,19.30
2022-12-24T10:44:51.717Z,18.80
2022-12-24T10:45:22.466Z,22.80
2022-12-24T10:45:53.276Z,24.90
2022-12-24T10:46:24.123Z,17.50
2022-12-24T10:46:54.912Z,17.30
2022-12-24T10:47:25.649Z,20.60
2022-12-24T10:47:56.394Z,18.30
2022-12-24T10:48:27.223Z,17.50
2022-12-24T10:48:57.965Z,19.40
2022-12-24T10:49:28.723Z,17.60
2022-12-24T10:49:59.482Z,18.40
2022-12-24T10:50:30.232Z,19.40
2022-12-24T10:51:00.992Z,18.10
2022-12-24T10:51:31.753Z,15.40
2022-12-24T10:52:02.509Z,18.40
2022-12-24T10:52:33.260Z,15.90
2022-12-24T10:53:04.022Z,14.50
2022-12-24T10:53:34.758Z,17.50
2022-12-24T10:54:05.508Z,18.00
2022-12-24T10:54:36.259Z,16.10
2022-12-24T10:55:07.005Z,21.30
2022-12-24T10:55:37.797Z,22.10
2022-12-24T10:56:08.561Z,16.30
2022-12-24T10:56:39.304Z,17.20
2022-12-24T10:57:10.052Z,19.20
2022-12-24T10:57:40.803Z,18.70
2022-12-24T10:58:11.564Z,16.60
2022-12-24T10:58:42.317Z,16.90
2022-12-24T10:59:13.061Z,17.70
2022-12-24T10:59:43.800Z,17.70
2022-12-24T11:00:14.564Z,25.90
2022-12-24T11:00:45.339Z,19.50
2022-12-24T11:01:16.206Z,16.80
2022-12-24T11:01:47.258Z,14.50
2022-12-24T11:02:18.265Z,15.40
2022-12-24T11:02:49.345Z,15.00
2022-12-24T11:03:20.216Z,15.40
2022-12-24T11:03:51.047Z,18.10
2022-12-24T11:04:21.841Z,20.20
2022-12-24T11:04:52.591Z,18.40
2022-12-24T11:05:23.357Z,17.30
2022-12-24T11:05:54.111Z,21.60
2022-12-24T11:06:24.854Z,20.20
2022-12-24T11:06:55.603Z,15.50
2022-12-24T11:07:26.382Z,21.60
2022-12-24T11:07:57.159Z,16.70
2022-12-24T11:08:27.919Z,16.20
2022-12-24T11:08:58.680Z,21.30
2022-12-24T11:09:29.446Z,16.10
2022-12-24T11:10:00.253Z,19.20
2022-12-24T11:10:31.038Z,16.90
2022-12-24T11:11:01.836Z,15.80
2022-12-24T11:11:32.606Z,15.30
2022-12-24T11:12:08.726Z,17.40
2022-12-24T11:12:35.972Z,19.10
2022-12-24T11:13:36.454Z,15.40
2022-12-24T11:13:39.919Z,17.10
2022-12-24T11:14:10.885Z,20.80
2022-12-24T11:14:41.645Z,18.80
2022-12-24T11:15:12.395Z,17.40
2022-12-24T11:15:43.196Z,16.50
2022-12-24T11:16:14.008Z,15.50
2022-12-24T11:16:44.775Z,13.50
2022-12-24T11:17:15.536Z,16.70
2022-12-24T11:17:46.309Z,14.20
2022-12-24T11:18:17.065Z,17.50
2022-12-24T11:18:51.345Z,15.20
2022-12-24T11:19:20.408Z,14.90
2022-12-24T11:19:51.167Z,19.10
2022-12-24T11:20:21.917Z,19.20
2022-12-24T11:20:52.673Z,13.50
2022-12-24T11:21:23.434Z,13.60
2022-12-24T11:21:54.185Z,15.30
2022-12-24T11:22:24.943Z,17.40
2022-12-24T11:22:55.705Z,18.00
2022-12-24T11:23:26.474Z,18.30
2022-12-24T11:23:57.255Z,15.30
2022-12-24T11:24:28.083Z,18.50
2022-12-24T11:24:58.828Z,15.40
2022-12-24T11:25:29.598Z,13.70
2022-12-24T11:26:00.456Z,16.50
2022-12-24T11:26:31.236Z,17.30
2022-12-24T11:27:01.984Z,20.80
2022-12-24T11:27:32.737Z,19.10
2022-12-24T11:28:03.496Z,16.20
2022-12-24T11:28:34.255Z,19.00
2022-12-24T11:29:05.004Z,19.90
2022-12-24T11:29:35.766Z,19.00
2022-12-24T11:30:11.565Z,19.00
2022-12-24T11:30:39.206Z,20.40
2022-12-24T11:31:10.089Z,14.80
2022-12-24T11:31:40.939Z,17.30
2022-12-24T11:32:11.698Z,13.60
2022-12-24T11:32:42.447Z,12.10
2022-12-24T11:33:13.212Z,16.80
2022-12-24T11:33:43.957Z,13.70
2022-12-24T11:34:14.710Z,17.10
2022-12-24T11:34:45.457Z,19.10
2022-12-24T11:35:16.221Z,32.20
2022-12-24T11:35:46.998Z,43.50
2022-12-24T11:36:17.799Z,89.40
2022-12-24T11:36:48.584Z,178.10
2022-12-24T11:37:19.357Z,90.20
2022-12-24T11:37:50.130Z,91.00
2022-12-24T11:38:20.935Z,94.00
2022-12-24T11:38:51.679Z,41.30
2022-12-24T11:39:22.428Z,49.60
2022-12-24T11:39:53.179Z,48.00
2022-12-24T11:40:23.962Z,50.00
2022-12-24T11:40:54.712Z,23.90
2022-12-24T11:41:25.458Z,16.00
2022-12-24T11:41:56.260Z,18.10
2022-12-24T11:42:26.998Z,23.90
2022-12-24T11:42:57.739Z,17.00
2022-12-24T11:43:28.489Z,24.40
2022-12-24T11:43:59.231Z,57.50
2022-12-24T11:44:30.269Z,113.90
2022-12-24T11:45:01.124Z,56.70
2022-12-24T11:45:31.929Z,88.30
2022-12-24T11:46:02.778Z,21.50
2022-12-24T11:46:33.585Z,42.00
2022-12-24T11:47:04.386Z,52.30
2022-12-24T11:47:35.132Z,63.00
2022-12-24T11:48:05.898Z,111.50
2022-12-24T11:48:36.649Z,24.70
2022-12-24T11:49:08.360Z,32.40
2022-12-24T11:49:39.349Z,51.20
2022-12-24T11:50:18.529Z,43.30
2022-12-24T11:50:42.718Z,45.40
2022-12-24T11:51:13.471Z,40.50
2022-12-24T11:51:44.233Z,39.60
2022-12-24T11:52:15.019Z,68.40
2022-12-24T11:52:45.771Z,66.50
2022-12-24T11:53:16.520Z,36.30
2022-12-24T11:53:47.272Z,72.80
2022-12-24T11:54:18.014Z,60.00
2022-12-24T11:54:48.760Z,66.00
2022-12-24T11:55:19.524Z,62.10
2022-12-24T11:55:50.261Z,35.70
2022-12-24T11:56:21.016Z,22.70
2022-12-24T11:56:51.782Z,24.10
2022-12-24T11:57:22.599Z,25.00
2022-12-24T11:57:53.352Z,29.80
2022-12-24T11:58:24.111Z,29.70
2022-12-24T11:58:54.903Z,35.60
2022-12-24T11:59:25.641Z,29.90
2022-12-24T11:59:56.415Z,23.30
2022-12-24T12:00:27.250Z,20.90
2022-12-24T12:00:58.016Z,19.60
2022-12-24T12:01:28.811Z,14.40
2022-12-24T12:01:59.642Z,18.10
2022-12-24T12:02:30.546Z,16.90
2022-12-24T12:03:01.413Z,16.40
2022-12-24T12:03:32.205Z,21.00
2022-12-24T12:04:03.034Z,21.90
2022-12-24T12:04:33.803Z,18.30
2022-12-24T12:05:04.559Z,20.60
2022-12-24T12:05:35.316Z,17.20
2022-12-24T12:06:06.068Z,24.10
2022-12-24T12:06:36.817Z,23.50
2022-12-24T12:07:12.866Z,33.80
2022-12-24T12:07:40.175Z,19.80
2022-12-24T12:08:10.921Z,24.40
2022-12-24T12:08:41.679Z,18.70
2022-12-24T12:09:12.433Z,19.60
2022-12-24T12:09:43.222Z,46.00
2022-12-24T12:10:13.975Z,120.30
2022-12-24T12:10:44.725Z,50.20
2022-12-24T12:11:15.486Z,36.40
2022-12-24T12:11:46.253Z,36.10
2022-12-24T12:12:17.016Z,39.20
2022-12-24T12:12:47.767Z,37.50
2022-12-24T12:13:18.540Z,38.50
2022-12-24T12:13:49.315Z,35.70
2022-12-24T12:14:20.045Z,29.10
2022-12-24T12:14:50.808Z,16.70
2022-12-24T12:15:21.563Z,15.20
2022-12-24T12:15:52.417Z,19.60
2022-12-24T12:16:23.409Z,26.20
2022-12-24T12:16:54.302Z,14.20
2022-12-24T12:17:25.091Z,15.00
2022-12-24T12:17:55.864Z,13.50
2022-12-24T12:18:26.642Z,13.40
2022-12-24T12:18:57.390Z,14.40
2022-12-24T12:19:34.103Z,11.50
2022-12-24T12:20:00.786Z,13.40
2022-12-24T12:20:32.391Z,12.70
2022-12-24T12:21:04.392Z,12.40
2022-12-24T12:21:36.187Z,13.00
2022-12-24T12:22:07.502Z,14.20
2022-12-24T12:22:38.809Z,15.80
2022-12-24T12:23:09.995Z,18.00
2022-12-24T12:23:41.380Z,13.80
2022-12-24T12:24:12.307Z,14.30
2022-12-24T12:24:43.341Z,22.50
2022-12-24T12:25:14.762Z,22.50
2022-12-24T12:25:46.004Z,18.20
2022-12-24T12:26:17.125Z,12.40
2022-12-24T12:26:49.068Z,11.20
2022-12-24T12:27:20.813Z,18.10
2022-12-24T12:27:51.893Z,12.80
2022-12-24T12:28:22.936Z,18.20
2022-12-24T12:28:53.968Z,14.00
2022-12-24T12:29:24.811Z,13.30
2022-12-24T12:29:55.905Z,21.40
2022-12-24T12:30:26.871Z,38.30
2022-12-24T12:30:57.833Z,40.60
2022-12-24T12:31:28.844Z,29.20
2022-12-24T12:31:59.923Z,35.60
2022-12-24T12:32:30.875Z,42.60
2022-12-24T12:33:01.814Z,40.90
2022-12-24T12:33:32.602Z,22.10
2022-12-24T12:34:03.383Z,23.00
2022-12-24T12:34:34.160Z,36.90
2022-12-24T12:35:04.958Z,51.40
2022-12-24T12:35:35.734Z,54.00
2022-12-24T12:36:06.483Z,82.30
2022-12-24T12:36:37.272Z,53.50
2022-12-24T12:37:12.773Z,28.70
2022-12-24T12:37:40.645Z,25.90
2022-12-24T12:38:11.409Z,19.80
2022-12-24T12:38:42.179Z,18.70
2022-12-24T12:39:12.927Z,27.20
2022-12-24T12:39:43.675Z,18.40
2022-12-24T12:40:14.430Z,16.30
2022-12-24T12:40:45.188Z,29.60
2022-12-24T12:41:15.939Z,19.50
2022-12-24T12:41:46.698Z,13.80
2022-12-24T12:42:17.450Z,17.00
2022-12-24T12:42:48.229Z,21.60
2022-12-24T12:43:18.980Z,20.00
2022-12-24T12:43:49.738Z,18.90
2022-12-24T12:44:20.501Z,14.30
2022-12-24T12:44:51.269Z,21.20
2022-12-24T12:45:22.020Z,21.50
2022-12-24T12:45:56.534Z,19.70
2022-12-24T12:46:24.786Z,16.00
2022-12-24T12:46:56.026Z,15.60
2022-12-24T12:47:27.765Z,20.90
2022-12-24T12:47:58.767Z,16.30
2022-12-24T12:48:29.749Z,15.00
2022-12-24T12:49:03.174Z,16.90
2022-12-24T12:49:31.419Z,17.40
2022-12-24T12:50:02.249Z,16.30
2022-12-24T12:50:33.054Z,18.10
2022-12-24T12:51:03.821Z,20.70
2022-12-24T12:51:34.570Z,24.60
2022-12-24T12:52:05.329Z,21.00
2022-12-24T12:52:36.087Z,21.20
2022-12-24T12:53:06.854Z,20.60
2022-12-24T12:53:37.607Z,24.50
2022-12-24T12:54:08.352Z,18.10
2022-12-24T12:54:39.115Z,18.40
2022-12-24T12:55:09.876Z,17.10
2022-12-24T12:55:40.661Z,19.20
2022-12-24T12:56:11.411Z,20.10
2022-12-24T12:56:42.159Z,23.50
2022-12-24T12:57:12.920Z,24.40
2022-12-24T12:57:43.659Z,26.20
2022-12-24T12:58:14.434Z,22.90
2022-12-24T12:58:45.183Z,24.40
2022-12-24T12:59:15.949Z,15.10
2022-12-24T12:59:46.690Z,20.50
2022-12-24T13:00:17.469Z,19.40
2022-12-24T13:00:48.240Z,19.40
2022-12-24T13:01:19.203Z,23.70
2022-12-24T13:01:50.218Z,17.90
2022-12-24T13:02:21.180Z,22.70
2022-12-24T13:02:52.140Z,17.50
2022-12-24T13:03:23.026Z,25.70
2022-12-24T13:03:53.869Z,23.80
2022-12-24T13:04:24.625Z,31.40
2022-12-24T13:04:55.392Z,24.10
2022-12-24T13:05:26.152Z,23.90
2022-12-24T13:05:56.891Z,26.50
2022-12-24T13:06:27.640Z,20.60
2022-12-24T13:06:58.392Z,22.20
2022-12-24T13:07:32.780Z,26.40
2022-12-24T13:08:01.788Z,25.90
2022-12-24T13:08:32.534Z,28.80
2022-12-24T13:09:03.294Z,29.10
2022-12-24T13:09:34.044Z,17.60
2022-12-24T13:10:08.248Z,22.10
2022-12-24T13:10:37.181Z,19.60
2022-12-24T13:11:09.353Z,21.80
2022-12-24T13:11:40.291Z,26.40
2022-12-24T13:12:12.090Z,23.10
2022-12-24T13:12:43.193Z,25.60
2022-12-24T13:13:20.193Z,25.10
2022-12-24T13:13:47.311Z,25.00
2022-12-24T13:14:18.977Z,22.50
2022-12-24T13:14:49.907Z,25.20
2022-12-24T13:15:20.654Z,25.90
2022-12-24T13:15:51.740Z,22.90
2022-12-24T13:16:23.141Z,29.50
2022-12-24T13:16:55.757Z,32.50
2022-12-24T13:17:28.032Z,24.00
2022-12-24T13:17:59.100Z,28.90
2022-12-24T13:18:34.361Z,22.20
2022-12-24T13:19:03.012Z,27.40
2022-12-24T13:19:38.322Z,25.50
2022-12-24T13:20:06.878Z,28.80
2022-12-24T13:20:37.666Z,34.10
2022-12-24T13:21:08.412Z,34.70
2022-12-24T13:21:39.166Z,28.20
2022-12-24T13:22:13.012Z,32.40
2022-12-24T13:22:41.434Z,28.20
2022-12-24T13:23:13.525Z,43.10
2022-12-24T13:23:45.424Z,28.50
2022-12-24T13:24:16.637Z,26.50
2022-12-24T13:24:51.529Z,24.00
2022-12-24T13:25:20.613Z,26.20
2022-12-24T13:25:52.298Z,28.90
2022-12-24T13:26:23.206Z,31.40
2022-12-24T13:26:54.485Z,33.60
2022-12-24T13:27:25.660Z,53.00
2022-12-24T13:27:56.711Z,45.00
2022-12-24T13:28:27.674Z,33.50
2022-12-24T13:28:58.798Z,29.50
2022-12-24T13:29:29.806Z,34.50
2022-12-24T13:30:09.150Z,33.10
2022-12-24T13:30:33.798Z,37.20
2022-12-24T13:31:05.107Z,42.70
2022-12-24T13:31:36.369Z,38.30
2022-12-24T13:32:07.311Z,32.60
2022-12-24T13:32:38.277Z,37.70
2022-12-24T13:33:09.481Z,29.90
2022-12-24T13:33:40.467Z,33.90
2022-12-24T13:34:11.901Z,29.50
2022-12-24T13:34:43.015Z,29.40
2022-12-24T13:35:13.856Z,49.50
2022-12-24T13:35:44.778Z,46.00
2022-12-24T13:36:15.917Z,50.70
2022-12-24T13:36:46.911Z,53.60
2022-12-24T13:37:17.882Z,37.10
2022-12-24T13:37:48.840Z,33.70
2022-12-24T13:38:19.673Z,30.50
2022-12-24T13:38:51.027Z,33.60
2022-12-24T13:39:22.042Z,36.50
2022-12-24T13:39:53.003Z,34.50
2022-12-24T13:40:23.971Z,27.60
2022-12-24T13:40:55.080Z,28.10
2022-12-24T13:41:26.028Z,32.90
2022-12-24T13:41:57.208Z,38.60
2022-12-24T13:42:28.183Z,38.50
2022-12-24T13:42:59.535Z,42.70
2022-12-24T13:43:30.849Z,39.30
2022-12-24T13:44:02.234Z,32.60
2022-12-24T13:44:33.388Z,40.30
2022-12-24T13:45:04.198Z,33.70
2022-12-24T13:45:35.179Z,33.40
2022-12-24T13:46:06.229Z,32.30
2022-12-24T13:46:37.287Z,31.50
2022-12-24T13:47:08.322Z,35.30
2022-12-24T13:47:39.245Z,29.20
2022-12-24T13:48:10.605Z,31.50
2022-12-24T13:48:41.687Z,30.60
2022-12-24T13:49:12.804Z,29.80
2022-12-24T13:49:43.831Z,27.10
2022-12-24T13:50:14.918Z,39.00
2022-12-24T13:50:45.915Z,30.70
2022-12-24T13:51:16.825Z,30.30
2022-12-24T13:51:47.785Z,28.10
2022-12-24T13:52:19.030Z,35.20
2022-12-24T13:52:49.925Z,32.30
2022-12-24T13:53:21.024Z,33.40
2022-12-24T13:53:51.914Z,37.20
2022-12-24T13:54:22.811Z,31.20
2022-12-24T13:54:53.739Z,35.90
2022-12-24T13:55:24.686Z,39.60
2022-12-24T13:55:55.720Z,35.10
2022-12-24T13:56:26.595Z,35.60
2022-12-24T13:56:57.589Z,36.00
2022-12-24T13:57:28.596Z,30.90
2022-12-24T13:57:59.662Z,38.00
2022-12-24T13:58:30.580Z,40.10
2022-12-24T13:59:01.803Z,33.20
2022-12-24T13:59:37.998Z,29.50
2022-12-24T14:00:05.975Z,32.40
2022-12-24T14:00:36.999Z,43.00
2022-12-24T14:01:08.107Z,38.30
2022-12-24T14:01:39.812Z,49.20
2022-12-24T14:02:11.157Z,37.30
2022-12-24T14:02:42.964Z,120.30
2022-12-24T14:03:14.362Z,147.20
2022-12-24T14:03:45.496Z,91.70
2022-12-24T14:04:16.772Z,128.30
2022-12-24T14:04:48.245Z,178.30
2022-12-24T14:05:21.627Z,79.60
2022-12-24T14:05:49.708Z,102.60
2022-12-24T14:06:20.635Z,77.20
2022-12-24T14:06:52.016Z,63.10
2022-12-24T14:07:22.858Z,65.20
2022-12-24T14:07:53.829Z,41.60
2022-12-24T14:08:24.846Z,36.20
2022-12-24T14:08:55.830Z,32.80
2022-12-24T14:09:26.682Z,35.50
2022-12-24T14:09:57.522Z,57.90
2022-12-24T14:10:28.474Z,179.90
2022-12-24T14:10:59.700Z,47.80
2022-12-24T14:11:37.732Z,55.70
2022-12-24T14:12:04.364Z,55.60
2022-12-24T14:12:35.302Z,67.30
2022-12-24T14:13:06.605Z,56.70
2022-12-24T14:13:37.579Z,30.20
2022-12-24T14:14:08.829Z,36.80
2022-12-24T14:14:45.349Z,34.10
2022-12-24T14:15:10.143Z,36.00
2022-12-24T14:15:41.011Z,50.90
2022-12-24T14:16:11.871Z,114.20
2022-12-24T14:16:42.827Z,80.30
2022-12-24T14:17:13.708Z,70.40
2022-12-24T14:17:44.655Z,98.60
2022-12-24T14:18:15.500Z,64.10
2022-12-24T14:18:46.304Z,38.10
2022-12-24T14:19:17.146Z,144.70
2022-12-24T14:19:47.948Z,280.00
2022-12-24T14:20:19.384Z,203.60
2022-12-24T14:20:50.272Z,73.10
2022-12-24T14:21:21.986Z,40.10
2022-12-24T14:21:53.157Z,39.20
2022-12-24T14:22:24.068Z,34.30
2022-12-24T14:22:55.699Z,36.10
2022-12-24T14:23:26.807Z,40.80
2022-12-24T14:23:57.711Z,42.30
2022-12-24T14:24:28.572Z,50.30
2022-12-24T14:25:00.332Z,54.30
2022-12-24T14:25:32.218Z,105.90
2022-12-24T14:26:03.521Z,61.50
2022-12-24T14:26:34.790Z,45.80
2022-12-24T14:27:05.734Z,39.90
2022-12-24T14:27:36.982Z,50.60
2022-12-24T14:28:08.052Z,44.20
2022-12-24T14:28:39.262Z,37.00
2022-12-24T14:29:11.178Z,38.00
2022-12-24T14:29:42.479Z,48.40
2022-12-24T14:30:13.467Z,45.90
2022-12-24T14:30:44.298Z,36.00
2022-12-24T14:31:15.484Z,47.30
2022-12-24T14:31:47.218Z,106.20
2022-12-24T14:32:18.249Z,54.50
2022-12-24T14:32:49.393Z,44.60
2022-12-24T14:33:20.814Z,159.90
2022-12-24T14:33:52.087Z,109.90
2022-12-24T14:34:23.183Z,46.70
2022-12-24T14:34:54.489Z,54.90
2022-12-24T14:35:25.579Z,262.90
2022-12-24T14:35:56.722Z,109.40
2022-12-24T14:36:27.984Z,64.70
2022-12-24T14:36:59.009Z,418.40
2022-12-24T14:37:34.497Z,669.10
2022-12-24T14:38:02.724Z,199.00
2022-12-24T14:38:33.904Z,109.00
2022-12-24T14:39:04.793Z,62.70
2022-12-24T14:39:35.845Z,179.80
2022-12-24T14:40:07.262Z,85.10
2022-12-24T14:40:38.689Z,205.60
2022-12-24T14:41:09.647Z,161.40
2022-12-24T14:41:40.903Z,242.70
2022-12-24T14:42:11.879Z,396.00
2022-12-24T14:42:43.006Z,240.60
2022-12-24T14:43:14.319Z,104.10
2022-12-24T14:43:45.831Z,117.00
2022-12-24T14:44:16.736Z,71.50
2022-12-24T14:44:47.751Z,56.90
2022-12-24T14:46:18.829Z,110.40
2022-12-24T14:46:49.928Z,87.10
2022-12-24T14:47:20.861Z,90.80
2022-12-24T14:47:51.875Z,72.80
2022-12-24T14:48:22.704Z,80.10
2022-12-24T14:48:53.541Z,91.10
2022-12-24T14:49:24.367Z,90.50
2022-12-24T14:49:56.290Z,99.10
2022-12-24T14:50:27.242Z,89.60
2022-12-24T14:50:58.092Z,74.20
2022-12-24T14:51:28.890Z,54.20
2022-12-24T14:51:59.712Z,55.20
2022-12-24T14:53:03.317Z,51.80
2022-12-24T14:53:07.190Z,54.00
2022-12-24T14:53:35.775Z,53.90
2022-12-24T14:54:06.616Z,53.00
2022-12-24T14:54:37.473Z,54.80
2022-12-24T14:55:08.273Z,64.80
2022-12-24T14:55:39.143Z,53.80
2022-12-24T14:56:09.929Z,74.90
2022-12-24T14:56:40.737Z,222.80
2022-12-24T14:57:11.618Z,134.40
2022-12-24T14:57:42.686Z,81.20
2022-12-24T14:58:13.685Z,68.50
2022-12-24T14:58:44.724Z,63.50
2022-12-24T14:59:15.595Z,149.20
2022-12-24T14:59:46.489Z,128.60
2022-12-24T15:00:17.456Z,143.30
2022-12-24T15:00:48.424Z,113.00
2022-12-24T15:01:19.527Z,95.70
2022-12-24T15:01:50.621Z,74.50
2022-12-24T15:02:22.332Z,94.10
2022-12-24T15:02:53.410Z,84.60
2022-12-24T15:03:24.600Z,54.00
2022-12-24T15:03:55.810Z,59.60
2022-12-24T15:04:26.649Z,63.60
2022-12-24T15:04:57.745Z,73.00
2022-12-24T15:05:28.627Z,76.50
2022-12-24T15:05:59.595Z,77.70
2022-12-24T15:06:30.491Z,102.30
2022-12-24T15:07:01.374Z,112.90
2022-12-24T15:07:32.526Z,121.20
2022-12-24T15:08:03.499Z,83.50
2022-12-24T15:08:34.392Z,76.50
2022-12-24T15:09:05.300Z,53.50
2022-12-24T15:09:36.168Z,60.90
2022-12-24T15:10:07.161Z,65.90